createdAt,value
2018-07-21T00:01:59.008Z,4.25
2018-07-21T00:04:26.928Z,4.20
2018-07-21T00:06:54.879Z,4.37
2018-07-21T00:09:22.909Z,3.90
2018-07-21T00:11:51.192Z,3.98
2018-07-21T00:14:19.344Z,4.60
2018-07-21T00:16:47.745Z,3.98
2018-07-21T00:19:15.976Z,4.15
2018-07-21T00:21:44.400Z,3.90
2018-07-21T00:24:12.665Z,4.07
2018-07-21T00:26:46.057Z,4.30
2018-07-21T00:29:14.864Z,4.00
2018-07-21T00:31:43.308Z,3.80
2018-07-21T00:34:11.404Z,4.25
2018-07-21T00:36:40.378Z,4.10
2018-07-21T00:39:09.684Z,4.28
2018-07-21T00:41:38.005Z,4.10
2018-07-21T00:44:07.083Z,4.10
2018-07-21T00:46:35.420Z,3.85
2018-07-21T00:49:03.677Z,4.00
2018-07-21T00:51:31.597Z,3.77
2018-07-21T00:53:59.987Z,4.00
2018-07-21T00:56:28.781Z,3.80
2018-07-21T00:58:57.568Z,3.40
2018-07-21T01:01:25.533Z,3.60
2018-07-21T01:03:53.656Z,3.30
2018-07-21T01:06:21.869Z,3.80
2018-07-21T01:08:49.771Z,3.25
2018-07-21T01:11:17.785Z,3.47
2018-07-21T01:13:45.760Z,3.70
2018-07-21T01:16:13.691Z,4.00
2018-07-21T01:18:41.940Z,3.75
2018-07-21T01:21:09.856Z,3.65
2018-07-21T01:23:38.054Z,3.60
2018-07-21T01:26:07.033Z,3.60
2018-07-21T01:28:34.976Z,3.67
2018-07-21T01:31:02.928Z,3.20
2018-07-21T01:33:31.218Z,3.42
2018-07-21T01:35:59.469Z,3.67
2018-07-21T01:38:27.490Z,3.58
2018-07-21T01:40:55.388Z,3.20
2018-07-21T01:43:23.371Z,3.40
2018-07-21T01:45:51.548Z,3.20
2018-07-21T01:48:19.473Z,3.40
2018-07-21T01:50:47.421Z,3.40
2018-07-21T01:53:15.584Z,3.60
2018-07-21T01:55:43.792Z,3.10
2018-07-21T01:58:12.109Z,3.08
2018-07-21T02:00:40.050Z,3.10
2018-07-21T02:03:07.980Z,3.50
2018-07-21T02:05:36.115Z,3.55
2018-07-21T02:08:04.365Z,2.80
2018-07-21T02:10:32.553Z,3.40
2018-07-21T02:13:00.508Z,3.20
2018-07-21T02:15:28.445Z,3.62
2018-07-21T02:17:56.739Z,3.60
2018-07-21T02:20:24.672Z,3.30
2018-07-21T02:22:52.859Z,3.70
2018-07-21T02:25:20.739Z,3.30
2018-07-21T02:27:48.762Z,3.50
2018-07-21T02:30:17.257Z,3.67
2018-07-21T02:32:45.429Z,3.60
2018-07-21T02:35:13.705Z,3.80
2018-07-21T02:37:41.588Z,3.40
2018-07-21T02:40:09.556Z,3.40
2018-07-21T02:42:37.480Z,4.00
2018-07-21T02:45:05.794Z,3.30
2018-07-21T02:47:33.963Z,3.83
2018-07-21T02:50:01.960Z,3.40
2018-07-21T02:52:30.412Z,3.70
2018-07-21T02:54:58.405Z,3.50
2018-07-21T02:57:26.964Z,3.00
2018-07-21T02:59:54.886Z,3.65
2018-07-21T03:02:22.804Z,3.50
2018-07-21T03:04:50.777Z,3.27
2018-07-21T03:07:19.560Z,3.10
2018-07-21T03:09:47.843Z,3.65
2018-07-21T03:12:16.060Z,3.20
2018-07-21T03:14:44.293Z,3.55
2018-07-21T03:17:12.239Z,3.35
2018-07-21T03:19:40.204Z,3.60
2018-07-21T03:22:08.410Z,3.17
2018-07-21T03:24:36.351Z,3.47
2018-07-21T03:27:04.309Z,3.77
2018-07-21T03:29:32.255Z,3.08
2018-07-21T03:32:00.452Z,3.53
2018-07-21T03:34:28.385Z,3.50
2018-07-21T03:36:56.283Z,3.33
2018-07-21T03:39:24.207Z,3.42
2018-07-21T03:41:52.473Z,3.15
2018-07-21T03:44:21.364Z,3.30
2018-07-21T03:46:49.579Z,3.25
2018-07-21T03:49:17.532Z,3.52
2018-07-21T03:51:45.508Z,3.65
2018-07-21T03:54:14.142Z,3.53
2018-07-21T03:56:42.379Z,3.60
2018-07-21T03:59:11.324Z,3.40
2018-07-21T04:01:39.752Z,3.50
2018-07-21T04:04:07.877Z,3.25
2018-07-21T04:06:36.359Z,3.52
2018-07-21T04:09:06.359Z,3.40
2018-07-21T04:11:34.320Z,3.20
2018-07-21T04:14:02.531Z,4.00
2018-07-21T04:16:30.576Z,4.20
2018-07-21T04:18:58.584Z,4.10
2018-07-21T04:21:26.840Z,3.52
2018-07-21T04:23:54.732Z,3.60
2018-07-21T04:26:23.297Z,3.40
2018-07-21T04:28:51.594Z,3.22
2018-07-21T04:31:19.816Z,3.35
2018-07-21T04:33:48.020Z,3.45
2018-07-21T04:36:16.500Z,3.40
2018-07-21T04:38:44.472Z,3.22
2018-07-21T04:41:12.429Z,3.20
2018-07-21T04:43:40.733Z,3.83
2018-07-21T04:46:08.956Z,3.72
2018-07-21T04:48:37.228Z,3.45
2018-07-21T04:51:05.516Z,3.15
2018-07-21T04:53:33.722Z,3.43
2018-07-21T04:56:02.724Z,3.17
2018-07-21T04:58:30.917Z,3.40
2018-07-21T05:00:59.235Z,3.50
2018-07-21T05:03:28.253Z,3.70
2018-07-21T05:05:56.220Z,3.30
2018-07-21T05:08:24.464Z,3.20
2018-07-21T05:10:52.723Z,2.90
2018-07-21T05:13:20.644Z,3.30
2018-07-21T05:15:48.637Z,3.62
2018-07-21T05:18:16.857Z,3.12
2018-07-21T05:20:45.136Z,3.30
2018-07-21T05:23:13.321Z,3.60
2018-07-21T05:25:41.197Z,3.30
2018-07-21T05:28:09.757Z,3.00
2018-07-21T05:30:38.493Z,3.00
2018-07-21T05:33:06.441Z,3.20
2018-07-21T05:35:34.768Z,3.27
2018-07-21T05:38:03.012Z,2.90
2018-07-21T05:40:31.317Z,3.37
2018-07-21T05:42:59.237Z,3.40
2018-07-21T05:45:27.187Z,3.20
2018-07-21T05:47:55.612Z,2.98
2018-07-21T05:50:23.535Z,3.02
2018-07-21T05:52:51.547Z,2.92
2018-07-21T05:55:19.797Z,3.00
2018-07-21T05:57:47.968Z,2.80
2018-07-21T06:00:15.909Z,3.37
2018-07-21T06:02:44.248Z,3.47
2018-07-21T06:05:12.501Z,4.20
2018-07-21T06:07:40.474Z,5.80
2018-07-21T06:10:08.416Z,3.47
2018-07-21T06:12:36.533Z,3.80
2018-07-21T06:15:05.035Z,4.53
2018-07-21T06:17:33.299Z,3.60
2018-07-21T06:20:01.904Z,3.10
2018-07-21T06:22:30.878Z,2.50
2018-07-21T06:24:58.929Z,2.70
2018-07-21T06:27:27.176Z,3.40
2018-07-21T06:29:55.456Z,3.55
2018-07-21T06:32:23.741Z,3.50
2018-07-21T06:34:52.021Z,3.10
2018-07-21T06:37:20.591Z,2.65
2018-07-21T06:39:48.582Z,3.17
2018-07-21T06:42:16.516Z,3.40
2018-07-21T06:44:44.676Z,3.92
2018-07-21T06:47:12.868Z,3.90
2018-07-21T06:49:40.876Z,4.00
2018-07-21T06:52:09.168Z,4.20
2018-07-21T06:54:37.389Z,4.70
2018-07-21T06:57:06.318Z,3.67
2018-07-21T06:59:34.885Z,4.03
2018-07-21T07:02:03.147Z,3.37
2018-07-21T07:04:31.413Z,2.85
2018-07-21T07:06:59.482Z,2.95
2018-07-21T07:09:27.672Z,3.30
2018-07-21T07:11:55.896Z,3.30
2018-07-21T07:14:23.850Z,2.80
2018-07-21T07:16:52.762Z,2.90
2018-07-21T07:19:20.694Z,2.50
2018-07-21T07:21:48.988Z,3.50
2018-07-21T07:24:17.018Z,3.67
2018-07-21T07:26:45.837Z,5.10
2018-07-21T07:29:14.076Z,3.70
2018-07-21T07:31:42.026Z,3.10
2018-07-21T07:34:10.275Z,3.00
2018-07-21T07:36:38.206Z,3.20
2018-07-21T07:39:07.225Z,4.30
2018-07-21T07:41:36.200Z,3.40
2018-07-21T07:44:04.468Z,3.60
2018-07-21T07:46:32.507Z,3.30
2018-07-21T07:49:00.425Z,3.63
2018-07-21T07:51:28.909Z,3.75
2018-07-21T07:53:57.172Z,3.70
2018-07-21T07:56:25.859Z,3.65
2018-07-21T07:58:53.793Z,4.42
2018-07-21T08:01:22.108Z,3.60
2018-07-21T08:03:49.992Z,3.60
2018-07-21T08:06:18.192Z,3.50
2018-07-21T08:08:46.368Z,3.40
2018-07-21T08:11:14.352Z,4.00
2018-07-21T08:13:42.821Z,3.50
2018-07-21T08:16:11.304Z,3.17
2018-07-21T08:18:39.188Z,3.90
2018-07-21T08:21:07.501Z,3.85
2018-07-21T08:23:36.086Z,3.40
2018-07-21T08:26:04.508Z,3.50
2018-07-21T08:28:32.513Z,3.75
2018-07-21T08:31:00.448Z,4.80
2018-07-21T08:33:28.683Z,4.90
2018-07-21T08:35:56.973Z,8.58
2018-07-21T08:38:25.157Z,8.20
2018-07-21T08:40:53.153Z,4.67
2018-07-21T08:43:21.669Z,5.33
2018-07-21T08:45:49.627Z,5.80
2018-07-21T08:48:17.592Z,4.50
2018-07-21T08:50:45.506Z,3.80
2018-07-21T08:53:13.816Z,3.90
2018-07-21T08:55:41.742Z,3.90
2018-07-21T08:58:09.650Z,5.05
2018-07-21T09:00:37.819Z,3.85
2018-07-21T09:03:06.799Z,4.75
2018-07-21T09:05:36.185Z,3.95
2018-07-21T09:08:06.413Z,4.00
2018-07-21T09:10:36.135Z,4.25
2018-07-21T09:13:04.385Z,3.50
2018-07-21T09:15:32.589Z,3.60
2018-07-21T09:18:00.537Z,3.30
2018-07-21T09:20:28.634Z,3.47
2018-07-21T09:22:56.884Z,3.47
2018-07-21T09:25:25.104Z,3.08
2018-07-21T09:27:53.305Z,3.37
2018-07-21T09:30:21.224Z,3.27
2018-07-21T09:32:49.512Z,3.90
2018-07-21T09:35:17.462Z,3.52
2018-07-21T09:37:45.649Z,3.58
2018-07-21T09:40:13.942Z,3.33
2018-07-21T09:42:42.372Z,3.50
2018-07-21T09:45:10.540Z,3.80
2018-07-21T09:47:38.503Z,3.45
2018-07-21T09:50:07.707Z,3.40
2018-07-21T09:52:35.632Z,3.60
2018-07-21T09:55:03.918Z,3.20
2018-07-21T09:57:31.920Z,3.50
2018-07-21T09:59:59.920Z,3.75
2018-07-21T10:02:27.906Z,3.60
2018-07-21T10:04:56.613Z,4.00
2018-07-21T10:07:24.608Z,3.10
2018-07-21T10:09:52.657Z,3.92
2018-07-21T10:12:21.032Z,3.75
2018-07-21T10:14:48.928Z,3.50
2018-07-21T10:17:17.112Z,3.80
2018-07-21T10:19:45.372Z,3.30
2018-07-21T10:22:13.750Z,3.95
2018-07-21T10:24:47.126Z,4.00
2018-07-21T10:27:16.112Z,3.80
2018-07-21T10:29:44.049Z,3.67
2018-07-21T10:32:12.176Z,3.47
2018-07-21T10:34:40.159Z,3.10
2018-07-21T10:37:08.135Z,3.60
2018-07-21T10:39:36.076Z,3.30
2018-07-21T10:42:04.429Z,3.20
2018-07-21T10:44:32.743Z,3.20
2018-07-21T10:47:00.735Z,3.70
2018-07-21T10:49:28.977Z,3.20
2018-07-21T10:51:57.556Z,3.20
2018-07-21T10:54:25.737Z,4.03
2018-07-21T10:56:53.676Z,3.20
2018-07-21T10:59:22.081Z,3.65
2018-07-21T11:01:50.027Z,3.00
2018-07-21T11:04:18.440Z,3.57
2018-07-21T11:06:46.404Z,4.00
2018-07-21T11:09:14.880Z,3.70
2018-07-21T11:11:42.862Z,3.10
2018-07-21T11:14:10.789Z,3.40
2018-07-21T11:16:39.889Z,3.45
2018-07-21T11:19:08.744Z,3.00
2018-07-21T11:21:36.903Z,3.50
2018-07-21T11:24:04.926Z,3.30
2018-07-21T11:26:33.124Z,3.60
2018-07-21T11:29:01.862Z,3.20
2018-07-21T11:31:29.821Z,3.20
2018-07-21T11:33:57.767Z,3.00
2018-07-21T11:36:26.044Z,3.15
2018-07-21T11:38:54.298Z,3.10
2018-07-21T11:41:22.240Z,3.30
2018-07-21T11:43:50.405Z,3.62
2018-07-21T11:46:18.601Z,3.30
2018-07-21T11:48:46.806Z,3.20
2018-07-21T11:51:14.708Z,3.50
2018-07-21T11:53:42.622Z,3.30
2018-07-21T11:56:10.534Z,3.65
2018-07-21T11:58:38.775Z,3.27
2018-07-21T12:01:07.481Z,3.60
2018-07-21T12:03:35.877Z,3.77
2018-07-21T12:06:04.048Z,3.50
2018-07-21T12:08:32.301Z,3.10
2018-07-21T12:11:00.180Z,3.80
2018-07-21T12:13:29.310Z,3.10
2018-07-21T12:15:58.097Z,3.35
2018-07-21T12:18:26.371Z,3.30
2018-07-21T12:20:54.348Z,3.60
2018-07-21T12:23:22.573Z,3.40
2018-07-21T12:25:50.479Z,3.27
2018-07-21T12:28:18.403Z,3.22
2018-07-21T12:30:46.329Z,3.60
2018-07-21T12:33:14.268Z,3.60
2018-07-21T12:35:42.526Z,3.40
2018-07-21T12:38:11.053Z,3.30
2018-07-21T12:40:39.385Z,3.25
2018-07-21T12:43:07.796Z,3.42
2018-07-21T12:45:35.780Z,3.20
2018-07-21T12:48:03.732Z,3.60
2018-07-21T12:50:31.720Z,3.12
2018-07-21T12:52:59.943Z,3.15
2018-07-21T12:55:28.231Z,3.58
2018-07-21T12:57:58.423Z,3.50
2018-07-21T13:00:26.420Z,3.40
2018-07-21T13:02:54.556Z,3.45
2018-07-21T13:05:22.728Z,3.40
2018-07-21T13:07:50.684Z,3.40
2018-07-21T13:10:18.908Z,3.27
2018-07-21T13:12:47.352Z,3.55
2018-07-21T13:15:15.312Z,4.10
2018-07-21T13:17:43.829Z,3.40
2018-07-21T13:20:11.990Z,3.47
2018-07-21T13:22:39.992Z,3.40
2018-07-21T13:25:08.200Z,3.33
2018-07-21T13:27:36.489Z,4.00
2018-07-21T13:30:04.953Z,3.90
2018-07-21T13:32:33.405Z,3.77
2018-07-21T13:35:01.581Z,3.50
2018-07-21T13:37:29.997Z,3.50
2018-07-21T13:39:58.353Z,3.60
2018-07-21T13:42:26.314Z,3.90
2018-07-21T13:44:55.201Z,3.70
2018-07-21T13:47:23.431Z,4.10
2018-07-21T13:49:51.362Z,4.00
2018-07-21T13:52:19.311Z,3.30
2018-07-21T13:54:47.629Z,3.80
2018-07-21T13:57:15.565Z,3.80
2018-07-21T13:59:44.037Z,3.60
2018-07-21T14:02:12.255Z,4.30
2018-07-21T14:04:40.226Z,3.47
2018-07-21T14:07:08.465Z,4.10
2018-07-21T14:09:36.465Z,3.40
2018-07-21T14:12:04.400Z,3.60
2018-07-21T14:14:32.337Z,3.20
2018-07-21T14:17:00.644Z,4.60
2018-07-21T14:19:28.644Z,4.33
2018-07-21T14:21:56.897Z,4.10
2018-07-21T14:24:24.910Z,3.80
2018-07-21T14:26:52.910Z,3.72
2018-07-21T14:29:20.881Z,3.80
2018-07-21T14:31:48.900Z,4.05
2018-07-21T14:34:17.233Z,3.90
2018-07-21T14:36:45.430Z,4.15
2018-07-21T14:39:13.580Z,4.40
2018-07-21T14:41:41.957Z,4.20
2018-07-21T14:44:10.713Z,4.00
2018-07-21T14:46:38.954Z,4.70
2018-07-21T14:49:06.908Z,4.30
2018-07-21T14:51:35.428Z,3.70
2018-07-21T14:54:03.644Z,3.60
2018-07-21T14:56:31.576Z,3.90
2018-07-21T14:58:59.584Z,3.95
2018-07-21T15:01:27.851Z,4.50
2018-07-21T15:03:55.700Z,4.33
2018-07-21T15:06:23.691Z,4.67
2018-07-21T15:08:51.646Z,4.07
2018-07-21T15:11:19.581Z,4.00
2018-07-21T15:13:47.521Z,4.80
2018-07-21T15:16:15.538Z,4.17
2018-07-21T15:18:43.586Z,3.67
2018-07-21T15:21:11.704Z,4.20
2018-07-21T15:23:39.959Z,3.40
2018-07-21T15:26:07.932Z,4.00
2018-07-21T15:28:35.852Z,3.87
2018-07-21T15:31:03.841Z,3.60
2018-07-21T15:33:32.008Z,3.52
2018-07-21T15:35:59.919Z,3.90
2018-07-21T15:38:27.856Z,4.80
2018-07-21T15:40:56.021Z,4.53
2018-07-21T15:43:24.184Z,4.00
2018-07-21T15:45:52.377Z,4.35
2018-07-21T15:48:20.484Z,3.90
2018-07-21T15:50:48.736Z,5.22
2018-07-21T15:53:16.756Z,4.10
2018-07-21T15:55:44.944Z,4.40
2018-07-21T15:58:13.757Z,4.43
2018-07-21T16:00:41.695Z,4.37
2018-07-21T16:03:09.647Z,4.55
2018-07-21T16:05:37.867Z,4.50
2018-07-21T16:08:06.250Z,4.20
2018-07-21T16:10:34.905Z,4.97
2018-07-21T16:13:03.096Z,4.40
2018-07-21T16:15:31.337Z,5.20
2018-07-21T16:17:59.296Z,5.20
2018-07-21T16:20:27.289Z,4.80
2018-07-21T16:22:55.217Z,4.67
2018-07-21T16:25:23.777Z,5.47
2018-07-21T16:27:52.131Z,4.80
2018-07-21T16:30:20.336Z,4.90
2018-07-21T16:32:48.265Z,5.10
2018-07-21T16:35:16.468Z,5.10
2018-07-21T16:37:44.400Z,4.85
2018-07-21T16:40:12.449Z,4.90
2018-07-21T16:42:40.329Z,4.90
2018-07-21T16:45:08.653Z,4.60
2018-07-21T16:47:37.139Z,4.62
2018-07-21T16:50:05.562Z,4.97
2018-07-21T16:52:33.685Z,5.10
2018-07-21T16:55:01.891Z,4.65
2018-07-21T16:57:29.860Z,5.40
2018-07-21T16:59:57.793Z,5.80
2018-07-21T17:02:26.497Z,5.42
2018-07-21T17:04:54.728Z,5.03
2018-07-21T17:07:23.199Z,5.40
2018-07-21T17:09:51.367Z,5.30
2018-07-21T17:12:19.726Z,5.62
2018-07-21T17:14:47.908Z,5.20
2018-07-21T17:17:16.165Z,5.10
2018-07-21T17:19:44.328Z,4.80
2018-07-21T17:22:12.557Z,5.10
2018-07-21T17:24:40.802Z,5.00
2018-07-21T17:27:09.061Z,4.60
2018-07-21T17:29:37.421Z,4.83
2018-07-21T17:32:05.459Z,4.60
2018-07-21T17:34:33.691Z,4.62
2018-07-21T17:37:01.870Z,4.80
2018-07-21T17:39:30.090Z,5.25
2018-07-21T17:41:58.586Z,4.90
2018-07-21T17:44:26.793Z,4.33
2018-07-21T17:46:55.031Z,4.90
2018-07-21T17:49:22.985Z,4.50
2018-07-21T17:51:51.213Z,4.20
2018-07-21T17:54:19.415Z,4.37
2018-07-21T17:56:47.562Z,4.45
2018-07-21T17:59:15.492Z,4.30
2018-07-21T18:01:43.420Z,4.70
2018-07-21T18:04:11.677Z,4.50
2018-07-21T18:06:40.156Z,5.20
2018-07-21T18:09:08.641Z,4.55
2018-07-21T18:11:36.614Z,3.90
2018-07-21T18:14:04.571Z,4.80
2018-07-21T18:16:32.505Z,5.00
2018-07-21T18:19:01.342Z,4.28
2018-07-21T18:21:29.776Z,4.90
2018-07-21T18:24:02.822Z,4.70
2018-07-21T18:26:34.264Z,5.40
2018-07-21T18:29:03.716Z,5.00
2018-07-21T18:31:31.696Z,4.75
2018-07-21T18:34:00.160Z,4.62
2018-07-21T18:36:28.705Z,5.10
2018-07-21T18:38:56.682Z,4.90
2018-07-21T18:41:24.612Z,4.80
2018-07-21T18:43:52.816Z,4.92
2018-07-21T18:46:20.754Z,4.42
2018-07-21T18:48:48.701Z,5.00
2018-07-21T18:51:16.637Z,4.70
2018-07-21T18:53:45.240Z,5.00
2018-07-21T18:56:13.421Z,4.80
2018-07-21T18:58:41.360Z,5.15
2018-07-21T19:01:09.605Z,5.20
2018-07-21T19:03:37.609Z,4.70
2018-07-21T19:06:05.508Z,5.17
2018-07-21T19:08:38.894Z,6.65
2018-07-21T19:11:07.176Z,5.53
2018-07-21T19:13:35.125Z,4.45
2018-07-21T19:16:08.417Z,5.50
2018-07-21T19:18:36.672Z,5.40
2018-07-21T19:21:10.056Z,5.07
2018-07-21T19:23:38.458Z,4.90
2018-07-21T19:26:11.946Z,4.60
2018-07-21T19:28:40.229Z,5.17
2018-07-21T19:31:08.187Z,5.60
2018-07-21T19:33:36.576Z,5.90
2018-07-21T19:36:04.693Z,4.83
2018-07-21T19:38:32.900Z,5.20
2018-07-21T19:41:06.536Z,4.80
2018-07-21T19:43:34.448Z,5.60
2018-07-21T19:46:02.371Z,5.42
2018-07-21T19:48:30.337Z,5.08
2018-07-21T19:50:58.296Z,6.17
2018-07-21T19:53:26.545Z,6.90
2018-07-21T19:55:55.910Z,7.20
2018-07-21T19:58:23.840Z,8.50
2018-07-21T20:00:51.943Z,6.97
2018-07-21T20:03:20.048Z,8.40
2018-07-21T20:05:48.577Z,6.20
2018-07-21T20:08:16.773Z,5.75
2018-07-21T20:10:45.237Z,5.60
2018-07-21T20:13:13.354Z,5.60
2018-07-21T20:15:41.670Z,5.63
2018-07-21T20:18:09.799Z,5.73
2018-07-21T20:20:37.780Z,5.50
2018-07-21T20:23:06.373Z,5.33
2018-07-21T20:25:34.729Z,5.80
2018-07-21T20:28:02.725Z,4.93
2018-07-21T20:30:31.264Z,5.10
2018-07-21T20:32:59.416Z,4.90
2018-07-21T20:35:27.785Z,5.00
2018-07-21T20:37:56.313Z,5.20
2018-07-21T20:40:24.317Z,5.20
2018-07-21T20:42:52.231Z,5.60
2018-07-21T20:45:20.209Z,5.30
2018-07-21T20:47:48.137Z,5.12
2018-07-21T20:50:16.344Z,5.50
2018-07-21T20:52:44.329Z,5.50
2018-07-21T20:55:12.512Z,5.20
2018-07-21T20:57:41.368Z,5.47
2018-07-21T21:00:09.368Z,5.20
2018-07-21T21:02:37.336Z,5.40
2018-07-21T21:05:05.733Z,5.50
2018-07-21T21:07:34.164Z,5.37
2018-07-21T21:10:02.427Z,5.35
2018-07-21T21:12:30.894Z,5.80
2018-07-21T21:14:59.065Z,5.33
2018-07-21T21:17:27.033Z,5.62
2018-07-21T21:19:54.968Z,5.33
2018-07-21T21:22:24.303Z,5.67
2018-07-21T21:24:52.856Z,5.90
2018-07-21T21:27:20.992Z,5.70
2018-07-21T21:29:48.983Z,5.10
2018-07-21T21:32:16.860Z,5.60
2018-07-21T21:34:45.401Z,5.90
2018-07-21T21:37:13.624Z,5.90
2018-07-21T21:39:41.553Z,5.60
2018-07-21T21:42:10.107Z,5.08
2018-07-21T21:44:38.284Z,5.03
2018-07-21T21:47:06.258Z,5.47
2018-07-21T21:49:34.491Z,5.17
2018-07-21T21:52:02.705Z,5.75
2018-07-21T21:54:30.678Z,6.00
2018-07-21T21:56:58.640Z,5.23
2018-07-21T21:59:26.916Z,5.45
2018-07-21T22:01:54.903Z,5.22
2018-07-21T22:04:22.904Z,5.45
2018-07-21T22:06:50.857Z,5.42
2018-07-21T22:09:18.755Z,5.20
2018-07-21T22:11:47.322Z,5.20
2018-07-21T22:14:15.381Z,5.50
2018-07-21T22:16:43.330Z,5.40
2018-07-21T22:19:11.646Z,5.08
2018-07-21T22:21:40.164Z,5.20
2018-07-21T22:24:08.483Z,5.20
2018-07-21T22:26:36.470Z,5.00
2018-07-21T22:29:04.668Z,5.40
2018-07-21T22:31:33.160Z,5.03
2018-07-21T22:34:01.410Z,5.03
2018-07-21T22:36:29.741Z,5.55
2018-07-21T22:38:57.879Z,5.50
2018-07-21T22:41:26.029Z,5.60
2018-07-21T22:43:54.004Z,5.30
2018-07-21T22:46:21.964Z,5.90
2018-07-21T22:48:50.251Z,5.47
2018-07-21T22:51:18.260Z,5.40
2018-07-21T22:53:46.796Z,5.15
2018-07-21T22:56:15.278Z,5.50
2018-07-21T22:58:44.267Z,5.08
2018-07-21T23:01:12.574Z,5.60
2018-07-21T23:03:40.495Z,5.27
2018-07-21T23:06:08.497Z,5.20
2018-07-21T23:08:36.766Z,5.22
2018-07-21T23:11:04.704Z,5.10
2018-07-21T23:13:32.669Z,5.40
2018-07-21T23:16:00.643Z,5.85
2018-07-21T23:18:29.157Z,5.35
2018-07-21T23:20:57.746Z,5.65
2018-07-21T23:23:26.017Z,5.67
2018-07-21T23:25:54.207Z,6.03
2018-07-21T23:28:22.863Z,5.20
2018-07-21T23:30:51.425Z,5.50
2018-07-21T23:33:19.402Z,4.90
2018-07-21T23:35:47.682Z,5.17
2018-07-21T23:38:15.629Z,5.50
2018-07-21T23:40:43.601Z,5.70
2018-07-21T23:43:11.771Z,6.03
2018-07-21T23:45:39.712Z,5.70
2018-07-21T23:48:07.701Z,5.17
2018-07-21T23:50:35.660Z,5.50
2018-07-21T23:53:03.916Z,5.80
2018-07-21T23:55:32.388Z,6.00
2018-07-21T23:58:00.362Z,5.47
